LFRO 301030Z AUTO 08008KT 030V130 CAVOK 23/08 Q1019

ElémentsDécodage
LFRO Station météo située sur l'aérodrome de LANNION
301030Z émis le 30 du mois à 10h30 UTC
AUTO Bulletin édité par un automate
08008KT vent du 080°, 08 noeuds
030V130 vent de direction variable entre 030° et 130°
CAVOK Ceiling And Visibility OK
- Visibilité de 10 Km ou plus
- Pas de nuage au-dessous de 1500m ou au-dessous de l'altitude minimale du secteur la plus élevée (si>1500m) et absence de CB
- pas de temps présent significatif
23/08 température 23°C, point de rosée 08°C
 soit une humidité relative de 38%
Q1019 la pression au niveau de la mer (QNH) est de 1019 hPa